createdAt,value
2022-07-26T00:00:10.535Z,96501.81
2022-07-26T00:02:38.692Z,96513.19
2022-07-26T00:05:10.138Z,96508.00
2022-07-26T00:07:38.295Z,96509.91
2022-07-26T00:10:09.195Z,96508.50
2022-07-26T00:12:37.604Z,96516.69
2022-07-26T00:15:08.872Z,96518.06
2022-07-26T00:17:37.132Z,96519.47
2022-07-26T00:20:06.642Z,96519.94
2022-07-26T00:22:35.001Z,96521.88
2022-07-26T00:25:07.249Z,96515.97
2022-07-26T00:27:38.152Z,96510.78
2022-07-26T00:30:09.976Z,96512.19
2022-07-26T00:32:38.665Z,96525.91
2022-07-26T00:35:08.957Z,96520.25
2022-07-26T00:37:37.205Z,96518.25
2022-07-26T00:40:06.699Z,96531.94
2022-07-26T00:42:38.795Z,96525.44
2022-07-26T00:45:09.472Z,96537.31
2022-07-26T00:47:37.867Z,96536.91
2022-07-26T00:50:10.167Z,96535.31
2022-07-26T00:52:38.328Z,96550.06
2022-07-26T00:55:08.061Z,96550.72
2022-07-26T00:57:39.385Z,96562.38
2022-07-26T01:00:12.428Z,96560.28
2022-07-26T01:02:41.074Z,96573.22
2022-07-26T01:05:10.100Z,96563.25
2022-07-26T01:07:39.341Z,96565.44
2022-07-26T01:10:12.864Z,96555.34
2022-07-26T01:12:43.245Z,96558.69
2022-07-26T01:15:16.760Z,96558.78
2022-07-26T01:17:45.327Z,96559.66
2022-07-26T01:20:15.176Z,96554.13
2022-07-26T01:22:44.710Z,96561.56
2022-07-26T01:25:12.799Z,96560.91
2022-07-26T01:27:41.105Z,96552.13
2022-07-26T01:30:12.832Z,96554.66
2022-07-26T01:32:41.151Z,96557.09
2022-07-26T01:35:11.314Z,96553.13
2022-07-26T01:37:39.739Z,96554.78
2022-07-26T01:40:11.384Z,96560.44
2022-07-26T01:42:40.893Z,96558.63
2022-07-26T01:45:10.468Z,96550.06
2022-07-26T01:47:39.243Z,96556.28
2022-07-26T01:50:10.038Z,96546.06
2022-07-26T01:52:39.279Z,96543.75
2022-07-26T01:55:10.525Z,96539.16
2022-07-26T01:57:38.676Z,96542.22
2022-07-26T02:00:09.090Z,96545.91
2022-07-26T02:02:37.372Z,96539.25
2022-07-26T02:05:06.367Z,96541.13
2022-07-26T02:07:41.687Z,96547.50
2022-07-26T02:10:14.475Z,96550.16
2022-07-26T02:12:42.798Z,96545.91
2022-07-26T02:15:12.877Z,96549.69
2022-07-26T02:17:41.079Z,96543.59
2022-07-26T02:20:10.591Z,96549.97
2022-07-26T02:22:38.626Z,96547.06
2022-07-26T02:25:11.598Z,96537.94
2022-07-26T02:27:40.991Z,96544.88
2022-07-26T02:30:10.739Z,96544.69
2022-07-26T02:32:43.735Z,96544.69
2022-07-26T02:35:12.143Z,96549.97
2022-07-26T02:37:43.882Z,96542.78
2022-07-26T02:40:18.808Z,96543.31
2022-07-26T02:42:48.849Z,96533.41
2022-07-26T02:45:16.900Z,96538.50
2022-07-26T02:47:49.312Z,96532.84
2022-07-26T02:50:19.179Z,96538.28
2022-07-26T02:52:48.792Z,96540.16
2022-07-26T02:55:21.535Z,96533.94
2022-07-26T02:57:51.105Z,96526.22
2022-07-26T03:00:22.340Z,96525.72
2022-07-26T03:02:51.321Z,96528.91
2022-07-26T03:05:20.742Z,96527.59
2022-07-26T03:07:49.268Z,96520.78
2022-07-26T03:10:17.946Z,96526.66
2022-07-26T03:12:46.188Z,96517.50
2022-07-26T03:15:15.871Z,96523.16
2022-07-26T03:17:44.042Z,96521.63
2022-07-26T03:20:13.719Z,96518.66
2022-07-26T03:22:41.894Z,96524.66
2022-07-26T03:25:10.272Z,96530.88
2022-07-26T03:27:38.507Z,96536.00
2022-07-26T03:30:08.471Z,96533.88
2022-07-26T03:32:37.951Z,96528.88
2022-07-26T03:35:07.285Z,96541.47
2022-07-26T03:37:46.296Z,96546.06
2022-07-26T03:40:16.390Z,96547.41
2022-07-26T03:42:45.342Z,96537.81
2022-07-26T03:45:14.149Z,96547.81
2022-07-26T03:47:45.216Z,96543.25
2022-07-26T03:50:13.875Z,96547.53
2022-07-26T03:52:42.624Z,96539.22
2022-07-26T03:55:30.493Z,96541.41
2022-07-26T03:57:59.052Z,96540.66
2022-07-26T04:00:27.785Z,96533.41
2022-07-26T04:03:00.262Z,96533.91
2022-07-26T04:05:34.690Z,96544.72
2022-07-26T04:08:04.764Z,96544.72
2022-07-26T04:10:33.154Z,96545.53
2022-07-26T04:13:01.179Z,96543.13
2022-07-26T04:15:29.279Z,96535.97
2022-07-26T04:17:58.688Z,96545.94
2022-07-26T04:20:26.750Z,96542.44
2022-07-26T04:22:54.917Z,96546.22
2022-07-26T04:25:23.257Z,96548.38
2022-07-26T04:27:51.350Z,96544.09
2022-07-26T04:30:19.568Z,96548.38
2022-07-26T04:32:47.670Z,96550.50
2022-07-26T04:35:17.612Z,96559.41
2022-07-26T04:37:47.478Z,96561.59
2022-07-26T04:40:21.146Z,96560.22
2022-07-26T04:42:50.576Z,96569.09
2022-07-26T04:45:19.301Z,96561.06
2022-07-26T04:47:50.245Z,96563.47
2022-07-26T04:50:23.005Z,96565.66
2022-07-26T04:52:52.580Z,96572.88
2022-07-26T04:55:21.159Z,96567.25
2022-07-26T04:57:50.294Z,96567.25
2022-07-26T05:00:24.785Z,96560.63
2022-07-26T05:02:56.282Z,96563.53
2022-07-26T05:05:27.772Z,96569.78
2022-07-26T05:07:59.167Z,96577.84
2022-07-26T05:10:32.241Z,96579.97
2022-07-26T05:13:00.449Z,96581.34
2022-07-26T05:15:35.287Z,96584.56
2022-07-26T05:18:07.103Z,96588.78
2022-07-26T05:20:38.833Z,96586.38
2022-07-26T05:23:08.341Z,96583.69
2022-07-26T05:25:36.618Z,96582.09
2022-07-26T05:28:06.375Z,96577.84
2022-07-26T05:30:34.507Z,96585.34
2022-07-26T05:33:03.023Z,96589.94
2022-07-26T05:35:31.452Z,96585.91
2022-07-26T05:38:01.520Z,96588.56
2022-07-26T05:40:29.815Z,96590.44
2022-07-26T05:42:57.983Z,96586.34
2022-07-26T05:45:26.091Z,96585.50
2022-07-26T05:47:56.294Z,96582.53
2022-07-26T05:50:24.434Z,96581.97
2022-07-26T05:52:52.503Z,96582.31
2022-07-26T05:55:23.422Z,96578.44
2022-07-26T05:57:51.754Z,96579.47
2022-07-26T06:00:20.797Z,96581.31
2022-07-26T06:02:48.883Z,96585.00
2022-07-26T06:05:17.503Z,96593.31
2022-07-26T06:07:45.528Z,96596.78
2022-07-26T06:10:13.587Z,96593.53
2022-07-26T06:12:43.128Z,96598.28
2022-07-26T06:17:44.636Z,96592.34
2022-07-26T06:20:13.244Z,96585.44
2022-07-26T06:22:41.613Z,96586.72
2022-07-26T06:25:10.517Z,96589.38
2022-07-26T06:27:38.774Z,96595.03
2022-07-26T06:30:10.351Z,96587.97
2022-07-26T06:32:38.507Z,96589.28
2022-07-26T06:35:07.589Z,96586.31
2022-07-26T06:37:37.959Z,96588.66
2022-07-26T06:40:08.618Z,96590.50
2022-07-26T06:42:37.146Z,96590.16
2022-07-26T06:45:08.785Z,96595.25
2022-07-26T06:47:36.876Z,96593.06
2022-07-26T06:50:06.164Z,96593.56
2022-07-26T06:52:34.303Z,96593.06
2022-07-26T06:55:03.544Z,96587.56
2022-07-26T06:57:31.614Z,96585.66
2022-07-26T06:59:59.699Z,96594.91
2022-07-26T07:02:29.172Z,96596.34
2022-07-26T07:04:57.285Z,96594.56
2022-07-26T07:07:25.365Z,96591.84
2022-07-26T07:09:56.682Z,96594.09
2022-07-26T07:12:24.739Z,96590.91
2022-07-26T07:14:52.913Z,96592.00
2022-07-26T07:17:23.575Z,96587.34
2022-07-26T07:19:52.979Z,96587.03
2022-07-26T07:22:21.213Z,96591.16
2022-07-26T07:24:49.248Z,96592.75
2022-07-26T07:27:17.526Z,96587.38
2022-07-26T07:29:45.780Z,96595.63
2022-07-26T07:32:18.139Z,96596.97
2022-07-26T07:34:48.410Z,96592.69
2022-07-26T07:37:20.247Z,96594.75
2022-07-26T07:39:48.895Z,96588.19
2022-07-26T07:42:19.716Z,96588.19
2022-07-26T07:44:47.969Z,96587.06
2022-07-26T07:47:16.423Z,96594.75
2022-07-26T07:49:44.697Z,96586.00
2022-07-26T07:52:12.787Z,96594.28
2022-07-26T07:54:42.363Z,96589.91
2022-07-26T07:57:10.630Z,96587.44
2022-07-26T07:59:39.508Z,96588.94
2022-07-26T08:02:09.271Z,96601.91
2022-07-26T08:04:37.430Z,96589.22
2022-07-26T08:07:06.614Z,96592.53
2022-07-26T08:09:34.761Z,96587.06
2022-07-26T08:12:04.682Z,96583.56
2022-07-26T08:14:33.594Z,96586.38
2022-07-26T08:17:02.217Z,96586.78
2022-07-26T08:19:41.860Z,96587.50
2022-07-26T08:22:11.010Z,96583.00
2022-07-26T08:24:39.149Z,96588.22
2022-07-26T08:27:08.697Z,96588.44
2022-07-26T08:29:36.868Z,96595.88
2022-07-26T08:32:30.150Z,96594.59
2022-07-26T08:35:17.008Z,96586.13
2022-07-26T08:37:47.108Z,96588.22
2022-07-26T08:40:17.050Z,96586.22
2022-07-26T08:42:52.840Z,96601.00
2022-07-26T08:45:23.722Z,96592.22
2022-07-26T08:48:16.018Z,96605.38
2022-07-26T08:50:41.482Z,96593.91
2022-07-26T08:53:12.854Z,96607.94
2022-07-26T08:58:32.831Z,96596.88
2022-07-26T09:01:09.616Z,96607.56
2022-07-26T09:03:38.603Z,96606.97
2022-07-26T09:06:15.763Z,96595.69
2022-07-26T09:08:45.580Z,96609.16
2022-07-26T09:11:33.871Z,96597.38
2022-07-26T09:14:06.195Z,96601.63
2022-07-26T09:16:39.304Z,96611.41
2022-07-26T09:19:22.230Z,96612.44
2022-07-26T09:21:51.564Z,96615.16
2022-07-26T09:24:33.641Z,96611.44
2022-07-26T09:27:04.391Z,96608.91
2022-07-26T09:29:45.095Z,96608.06
2022-07-26T09:32:19.532Z,96619.91
2022-07-26T09:34:53.421Z,96621.91
2022-07-26T09:37:36.346Z,96618.41
2022-07-26T09:40:08.463Z,96620.88
2022-07-26T09:42:37.476Z,96622.84
2022-07-26T09:45:17.675Z,96627.34
2022-07-26T09:47:45.734Z,96634.69
2022-07-26T09:50:17.700Z,96624.41
2022-07-26T09:53:01.291Z,96630.22
2022-07-26T09:55:39.316Z,96630.31
2022-07-26T09:58:14.377Z,96632.31
2022-07-26T10:00:45.000Z,96640.78
2022-07-26T10:03:13.563Z,96629.72
2022-07-26T10:05:42.410Z,96630.22
2022-07-26T10:08:11.103Z,96628.16
2022-07-26T10:10:44.916Z,96637.25
2022-07-26T10:13:13.251Z,96634.94
2022-07-26T10:15:46.702Z,96629.63
2022-07-26T10:18:51.130Z,96633.69
2022-07-26T10:21:25.163Z,96636.84
2022-07-26T10:23:56.750Z,96632.19
2022-07-26T10:26:45.408Z,96623.00
2022-07-26T10:29:28.767Z,96629.34
2022-07-26T10:32:20.165Z,96629.03
2022-07-26T10:34:48.873Z,96630.50
2022-07-26T10:37:29.525Z,96631.09
2022-07-26T10:40:19.272Z,96648.53
2022-07-26T10:42:47.749Z,96635.72
2022-07-26T10:45:23.677Z,96640.56
2022-07-26T10:48:17.113Z,96636.28
2022-07-26T10:50:48.658Z,96648.78
2022-07-26T10:53:23.444Z,96647.19
2022-07-26T10:55:54.254Z,96647.00
2022-07-26T10:58:23.546Z,96652.38
2022-07-26T11:01:01.612Z,96658.00
2022-07-26T11:03:42.599Z,96651.53
2022-07-26T11:06:13.394Z,96652.19
2022-07-26T11:08:45.975Z,96647.44
2022-07-26T11:11:29.684Z,96644.00
2022-07-26T11:14:07.750Z,96646.31
2022-07-26T11:16:40.973Z,96643.25
2022-07-26T11:19:18.995Z,96639.03
2022-07-26T11:21:53.638Z,96632.16
2022-07-26T11:24:21.988Z,96632.03
2022-07-26T11:26:50.324Z,96639.41
2022-07-26T11:29:38.061Z,96633.19
2022-07-26T11:32:17.718Z,96637.25
2022-07-26T11:34:47.881Z,96640.47
2022-07-26T11:37:16.070Z,96645.03
2022-07-26T11:39:44.196Z,96640.94
2022-07-26T11:42:16.149Z,96636.69
2022-07-26T11:44:46.476Z,96638.47
2022-07-26T11:47:18.981Z,96639.13
2022-07-26T11:50:00.865Z,96645.38
2022-07-26T11:52:37.598Z,96643.03
2022-07-26T11:55:07.325Z,96643.84
2022-07-26T11:57:35.429Z,96645.94
2022-07-26T12:00:04.585Z,96634.63
2022-07-26T12:02:41.850Z,96628.88
2022-07-26T12:05:20.565Z,96624.34
2022-07-26T12:07:58.783Z,96638.06
2022-07-26T12:10:28.150Z,96630.75
2022-07-26T12:13:11.781Z,96636.34
2022-07-26T12:15:52.613Z,96632.03
2022-07-26T12:18:29.428Z,96631.06
2022-07-26T12:21:05.201Z,96639.19
2022-07-26T12:23:46.177Z,96627.28
2022-07-26T12:26:26.185Z,96623.75
2022-07-26T12:28:55.409Z,96625.69
2022-07-26T12:31:26.133Z,96621.72
2022-07-26T12:33:54.602Z,96614.72
2022-07-26T12:36:28.035Z,96621.09
2022-07-26T12:38:58.330Z,96610.75
2022-07-26T12:41:34.895Z,96608.88
2022-07-26T12:44:03.299Z,96608.69
2022-07-26T12:46:34.428Z,96625.22
2022-07-26T12:49:02.938Z,96617.56
2022-07-26T12:51:32.455Z,96620.56
2022-07-26T12:54:00.595Z,96620.72
2022-07-26T12:56:28.667Z,96602.72
2022-07-26T12:59:01.100Z,96609.91
2022-07-26T13:01:30.440Z,96601.06
2022-07-26T13:03:58.889Z,96600.56
2022-07-26T13:06:27.167Z,96599.13
2022-07-26T13:08:56.945Z,96611.56
2022-07-26T13:11:25.289Z,96595.66
2022-07-26T13:13:53.433Z,96594.13
2022-07-26T13:16:21.526Z,96597.00
2022-07-26T13:18:49.783Z,96605.00
2022-07-26T13:21:17.911Z,96597.19
2022-07-26T13:23:46.053Z,96589.75
2022-07-26T13:26:15.528Z,96586.69
2022-07-26T13:28:44.499Z,96589.50
2022-07-26T13:31:18.427Z,96586.03
2022-07-26T13:33:46.872Z,96582.09
2022-07-26T13:36:14.922Z,96588.00
2022-07-26T13:38:43.081Z,96590.53
2022-07-26T13:41:11.265Z,96581.66
2022-07-26T13:43:40.977Z,96579.09
2022-07-26T13:46:09.200Z,96576.72
2022-07-26T13:48:37.347Z,96577.97
2022-07-26T13:51:06.259Z,96578.16
2022-07-26T13:53:36.275Z,96573.19
2022-07-26T13:56:20.498Z,96569.06
2022-07-26T13:58:50.009Z,96569.09
2022-07-26T14:01:18.149Z,96565.44
2022-07-26T14:03:46.277Z,96561.75
2022-07-26T14:06:14.366Z,96560.47
2022-07-26T14:08:42.732Z,96561.94
2022-07-26T14:11:12.294Z,96553.03
2022-07-26T14:13:40.913Z,96557.00
2022-07-26T14:16:11.780Z,96566.38
2022-07-26T14:18:39.962Z,96571.47
2022-07-26T14:21:10.719Z,96563.69
2022-07-26T14:23:39.845Z,96567.19
2022-07-26T14:26:08.134Z,96564.47
2022-07-26T14:28:36.437Z,96570.69
2022-07-26T14:31:04.775Z,96576.22
2022-07-26T14:33:34.412Z,96566.03
2022-07-26T14:36:02.989Z,96572.00
2022-07-26T14:38:31.051Z,96561.09
2022-07-26T14:41:01.073Z,96560.31
2022-07-26T14:43:29.236Z,96571.16
2022-07-26T14:45:57.689Z,96568.41
2022-07-26T14:48:51.911Z,96568.28
2022-07-26T14:51:15.523Z,96572.88
2022-07-26T14:53:43.799Z,96574.31
2022-07-26T14:56:12.197Z,96570.19
2022-07-26T14:58:40.542Z,96566.06
2022-07-26T15:01:09.316Z,96562.22
2022-07-26T15:03:37.477Z,96566.00
2022-07-26T15:06:05.915Z,96564.19
2022-07-26T15:08:35.471Z,96568.31
2022-07-26T15:11:05.404Z,96551.78
2022-07-26T15:13:33.656Z,96568.63
2022-07-26T15:16:02.009Z,96555.91
2022-07-26T15:18:30.200Z,96555.41
2022-07-26T15:20:58.433Z,96550.00
2022-07-26T15:23:27.277Z,96554.78
2022-07-26T15:25:56.718Z,96543.16
2022-07-26T15:28:25.081Z,96539.63
2022-07-26T15:30:53.626Z,96543.06
2022-07-26T15:33:21.693Z,96549.75
2022-07-26T15:35:50.670Z,96544.97
2022-07-26T15:38:18.680Z,96547.94
2022-07-26T15:40:46.780Z,96545.63
2022-07-26T15:43:22.802Z,96543.41
2022-07-26T15:46:10.981Z,96551.53
2022-07-26T15:48:39.125Z,96544.69
2022-07-26T15:51:07.351Z,96542.31
2022-07-26T15:53:35.568Z,96540.06
2022-07-26T15:56:03.688Z,96534.16
2022-07-26T15:58:33.176Z,96535.69
2022-07-26T16:01:01.315Z,96536.00
2022-07-26T16:03:29.510Z,96534.44
2022-07-26T16:05:59.625Z,96535.13
2022-07-26T16:08:30.822Z,96529.34
2022-07-26T16:10:58.944Z,96534.97
2022-07-26T16:13:27.048Z,96534.66
2022-07-26T16:15:56.564Z,96531.72
2022-07-26T16:18:24.624Z,96525.66
2022-07-26T16:20:52.765Z,96523.25
2022-07-26T16:23:20.860Z,96525.97
2022-07-26T16:25:49.027Z,96516.88
2022-07-26T16:28:17.071Z,96519.91
2022-07-26T16:30:45.283Z,96521.97
2022-07-26T16:33:14.762Z,96519.13
2022-07-26T16:35:43.031Z,96516.84
2022-07-26T16:38:12.014Z,96520.94
2022-07-26T16:40:40.103Z,96522.16
2022-07-26T16:43:08.627Z,96528.34
2022-07-26T16:45:37.697Z,96523.06
2022-07-26T16:48:07.023Z,96523.88
2022-07-26T16:50:36.759Z,96517.19
2022-07-26T16:53:04.985Z,96518.41
2022-07-26T16:55:33.090Z,96521.31
2022-07-26T16:58:01.141Z,96521.44
2022-07-26T17:00:29.473Z,96521.13
2022-07-26T17:02:57.524Z,96511.13
2022-07-26T17:05:25.626Z,96520.50
2022-07-26T17:07:55.053Z,96514.19
2022-07-26T17:10:26.630Z,96513.22
2022-07-26T17:12:54.744Z,96514.13
2022-07-26T17:15:22.947Z,96508.75
2022-07-26T17:17:50.993Z,96512.72
2022-07-26T17:20:19.829Z,96518.91
2022-07-26T17:22:48.072Z,96510.97
2022-07-26T17:25:17.484Z,96516.38
2022-07-26T17:27:45.927Z,96515.38
2022-07-26T17:30:14.491Z,96509.19
2022-07-26T17:32:42.633Z,96506.31
2022-07-26T17:35:10.861Z,96516.13
2022-07-26T17:37:40.025Z,96514.06
2022-07-26T17:40:10.494Z,96511.97
2022-07-26T17:42:40.559Z,96514.84
2022-07-26T17:45:10.339Z,96517.19
2022-07-26T17:47:38.437Z,96513.44
2022-07-26T17:50:34.697Z,96508.34
2022-07-26T17:52:57.292Z,96512.28
2022-07-26T17:55:25.502Z,96507.19
2022-07-26T17:57:55.059Z,96512.88
2022-07-26T18:00:28.590Z,96511.09
2022-07-26T18:02:57.980Z,96515.88
2022-07-26T18:05:33.328Z,96513.13
2022-07-26T18:08:02.615Z,96506.44
2022-07-26T18:10:30.808Z,96497.97
2022-07-26T18:13:00.328Z,96502.75
2022-07-26T18:15:28.848Z,96508.88
2022-07-26T18:17:57.176Z,96502.81
2022-07-26T18:20:27.218Z,96501.22
2022-07-26T18:22:55.468Z,96500.53
2022-07-26T18:25:23.673Z,96496.56
2022-07-26T18:27:53.814Z,96504.94
2022-07-26T18:30:23.447Z,96502.25
2022-07-26T18:32:52.026Z,96498.97
2022-07-26T18:35:20.311Z,96501.78
2022-07-26T18:37:50.388Z,96499.19
2022-07-26T18:40:18.440Z,96514.38
2022-07-26T18:42:46.515Z,96507.81
2022-07-26T18:45:15.076Z,96508.41
2022-07-26T18:47:45.017Z,96508.22
2022-07-26T18:50:17.206Z,96511.50
2022-07-26T18:52:45.664Z,96519.41
2022-07-26T18:55:16.057Z,96513.50
2022-07-26T18:57:45.358Z,96514.91
2022-07-26T19:00:17.837Z,96519.59
2022-07-26T19:02:51.491Z,96515.13
2022-07-26T19:05:22.592Z,96529.19
2022-07-26T19:07:51.650Z,96523.13
2022-07-26T19:10:20.966Z,96525.84
2022-07-26T19:12:54.413Z,96532.75
2022-07-26T19:15:23.043Z,96536.31
2022-07-26T19:17:52.638Z,96534.84
2022-07-26T19:20:20.826Z,96539.50
2022-07-26T19:22:50.945Z,96545.19
2022-07-26T19:25:19.617Z,96546.88
2022-07-26T19:27:47.882Z,96546.16
2022-07-26T19:30:15.923Z,96562.13
2022-07-26T19:32:44.032Z,96564.09
2022-07-26T19:35:13.465Z,96569.28
2022-07-26T19:37:41.771Z,96571.75
2022-07-26T19:40:11.320Z,96566.38
2022-07-26T19:42:39.423Z,96569.63
2022-07-26T19:45:08.745Z,96571.03
2022-07-26T19:47:38.635Z,96578.09
2022-07-26T19:50:09.477Z,96576.50
2022-07-26T19:52:39.207Z,96577.06
2022-07-26T19:55:08.763Z,96583.00
2022-07-26T19:57:37.665Z,96586.59
2022-07-26T20:00:08.057Z,96594.75
2022-07-26T20:02:42.463Z,96588.13
2022-07-26T20:05:11.818Z,96590.31
2022-07-26T20:07:41.387Z,96589.53
2022-07-26T20:10:10.396Z,96593.88
2022-07-26T20:12:38.845Z,96597.97
2022-07-26T20:15:09.092Z,96596.94
2022-07-26T20:17:39.652Z,96591.03
2022-07-26T20:20:09.981Z,96598.09
2022-07-26T20:22:38.264Z,96596.00
2022-07-26T20:25:09.497Z,96594.69
2022-07-26T20:27:37.591Z,96592.34
2022-07-26T20:30:08.009Z,96598.00
2022-07-26T20:32:36.230Z,96596.72
2022-07-26T20:35:04.978Z,96592.50
2022-07-26T20:37:33.200Z,96591.50
2022-07-26T20:40:01.530Z,96593.69
2022-07-26T20:42:30.919Z,96601.03
2022-07-26T20:45:00.931Z,96590.34
2022-07-26T20:47:29.119Z,96596.09
2022-07-26T20:50:02.673Z,96590.25
2022-07-26T20:52:31.291Z,96586.03
2022-07-26T20:55:00.401Z,96603.00
2022-07-26T20:57:29.970Z,96597.69
2022-07-26T20:59:58.177Z,96597.47
2022-07-26T21:02:26.363Z,96593.25
2022-07-26T21:04:54.520Z,96598.09
2022-07-26T21:07:24.108Z,96592.78
2022-07-26T21:10:13.438Z,96600.59
2022-07-26T21:12:42.943Z,96598.19
2022-07-26T21:15:12.035Z,96599.03
2022-07-26T21:17:40.217Z,96595.03
2022-07-26T21:20:09.359Z,96600.97
2022-07-26T21:22:37.449Z,96592.69
2022-07-26T21:25:07.668Z,96592.72
2022-07-26T21:27:35.964Z,96591.69
2022-07-26T21:30:07.012Z,96597.63
2022-07-26T21:32:35.347Z,96595.81
2022-07-26T21:35:03.771Z,96597.66
2022-07-26T21:37:32.057Z,96598.44
2022-07-26T21:40:00.947Z,96596.31
2022-07-26T21:42:29.649Z,96602.75
2022-07-26T21:44:58.006Z,96607.31
2022-07-26T21:47:27.674Z,96602.75
2022-07-26T21:49:55.919Z,96591.81
2022-07-26T21:52:24.231Z,96604.69
2022-07-26T21:54:52.503Z,96592.88
2022-07-26T21:57:21.014Z,96604.69
2022-07-26T21:59:49.415Z,96596.41
2022-07-26T22:02:20.096Z,96595.09
2022-07-26T22:04:51.551Z,96603.16
2022-07-26T22:07:19.853Z,96601.63
2022-07-26T22:09:48.138Z,96602.72
2022-07-26T22:12:16.397Z,96597.09
2022-07-26T22:14:44.637Z,96608.38
2022-07-26T22:17:12.814Z,96595.56
2022-07-26T22:19:40.896Z,96603.34
2022-07-26T22:22:10.327Z,96599.31
2022-07-26T22:24:38.453Z,96605.69
2022-07-26T22:27:06.953Z,96597.44
2022-07-26T22:29:39.759Z,96597.22
2022-07-26T22:32:08.494Z,96600.38
2022-07-26T22:34:36.648Z,96595.34
2022-07-26T22:37:04.705Z,96594.53
2022-07-26T22:39:34.117Z,96599.41
2022-07-26T22:42:17.435Z,96593.81
2022-07-26T22:44:45.667Z,96598.38
2022-07-26T22:47:13.799Z,96599.44
2022-07-26T22:49:41.962Z,96598.13
2022-07-26T22:52:10.237Z,96594.94
2022-07-26T22:54:39.816Z,96594.38
2022-07-26T22:57:07.894Z,96593.56
2022-07-26T22:59:36.958Z,96594.41
2022-07-26T23:02:05.425Z,96595.72
2022-07-26T23:04:33.568Z,96599.44
2022-07-26T23:07:02.349Z,96593.56
2022-07-26T23:09:32.687Z,96598.38
2022-07-26T23:12:02.342Z,96608.00
2022-07-26T23:14:30.466Z,96602.38
2022-07-26T23:16:59.726Z,96603.16
2022-07-26T23:19:27.817Z,96601.00
2022-07-26T23:21:55.896Z,96595.13
2022-07-26T23:24:23.990Z,96598.88
2022-07-26T23:26:52.136Z,96593.00
2022-07-26T23:29:21.624Z,96598.09
2022-07-26T23:31:49.782Z,96595.66
2022-07-26T23:34:17.904Z,96602.56
2022-07-26T23:36:46.553Z,96597.72
2022-07-26T23:39:14.926Z,96600.38
2022-07-26T23:41:43.131Z,96596.06
2022-07-26T23:44:11.215Z,96598.00
2022-07-26T23:46:40.749Z,96599.03
2022-07-26T23:49:09.272Z,96605.19
2022-07-26T23:51:38.816Z,96606.00
2022-07-26T23:54:06.967Z,96605.75
2022-07-26T23:56:35.100Z,96606.03
2022-07-26T23:59:03.728Z,96606.56
